sensor_id;sensor_type;location;lat;lon;timestamp;pressure;altitude;pressure_sealevel;temperature;humidity
61676;BME280;47574;52.090;5.244;2022-08-05T00:00:49;101547.0;;;25.75;48.94
61676;BME280;47574;52.090;5.244;2022-08-05T00:02:36;101551.0;;;25.73;48.86
61676;BME280;47574;52.090;5.244;2022-08-05T00:04:23;101549.0;;;25.96;48.46
61676;BME280;47574;52.090;5.244;2022-08-05T00:06:10;101553.0;;;25.73;48.86
61676;BME280;47574;52.090;5.244;2022-08-05T00:09:44;101553.0;;;25.89;48.58
61676;BME280;47574;52.090;5.244;2022-08-05T00:11:30;101551.0;;;25.7;48.93
61676;BME280;47574;52.090;5.244;2022-08-05T00:13:16;101549.0;;;25.63;49.28
61676;BME280;47574;52.090;5.244;2022-08-05T00:15:03;101546.0;;;25.72;49.1
61676;BME280;47574;52.090;5.244;2022-08-05T00:16:49;101545.0;;;25.85;48.76
61676;BME280;47574;52.090;5.244;2022-08-05T00:18:35;101545.0;;;25.57;49.39
61676;BME280;47574;52.090;5.244;2022-08-05T00:22:12;101546.0;;;25.92;48.74
61676;BME280;47574;52.090;5.244;2022-08-05T00:23:59;101541.0;;;25.87;48.81
61676;BME280;47574;52.090;5.244;2022-08-05T00:25:46;101540.0;;;25.69;49.27
61676;BME280;47574;52.090;5.244;2022-08-05T00:27:33;101540.0;;;25.86;48.97
61676;BME280;47574;52.090;5.244;2022-08-05T00:29:19;101532.0;;;25.67;49.48
61676;BME280;47574;52.090;5.244;2022-08-05T00:31:06;101536.0;;;25.86;49.11
61676;BME280;47574;52.090;5.244;2022-08-05T00:34:40;101531.0;;;26.0;48.88
61676;BME280;47574;52.090;5.244;2022-08-05T00:36:27;101533.0;;;25.91;49.05
61676;BME280;47574;52.090;5.244;2022-08-05T00:38:14;101535.0;;;25.94;49.12
61676;BME280;47574;52.090;5.244;2022-08-05T00:40:00;101542.0;;;25.92;49.29
61676;BME280;47574;52.090;5.244;2022-08-05T00:41:47;101542.0;;;26.05;49.06
61676;BME280;47574;52.090;5.244;2022-08-05T00:45:20;101541.0;;;26.2;48.72
61676;BME280;47574;52.090;5.244;2022-08-05T00:47:07;101536.0;;;25.85;49.53
61676;BME280;47574;52.090;5.244;2022-08-05T00:48:54;101540.0;;;25.96;49.39
61676;BME280;47574;52.090;5.244;2022-08-05T00:50:42;101541.0;;;25.78;49.84
61676;BME280;47574;52.090;5.244;2022-08-05T00:52:32;101538.0;;;25.93;49.56
61676;BME280;47574;52.090;5.244;2022-08-05T00:54:20;101544.0;;;25.98;49.42
61676;BME280;47574;52.090;5.244;2022-08-05T00:57:54;101549.0;;;25.8;49.94
61676;BME280;47574;52.090;5.244;2022-08-05T00:59:40;101552.0;;;25.9;49.75
61676;BME280;47574;52.090;5.244;2022-08-05T01:01:27;101543.0;;;26.01;49.51
61676;BME280;47574;52.090;5.244;2022-08-05T01:03:14;101532.0;;;26.05;49.45
61676;BME280;47574;52.090;5.244;2022-08-05T01:05:01;101530.0;;;25.94;49.71
61676;BME280;47574;52.090;5.244;2022-08-05T01:06:47;101530.0;;;25.68;50.31
61676;BME280;47574;52.090;5.244;2022-08-05T01:10:24;101538.0;;;25.98;49.7
61676;BME280;47574;52.090;5.244;2022-08-05T01:12:25;101549.0;;;26.05;49.54
61676;BME280;47574;52.090;5.244;2022-08-05T01:14:17;101548.0;;;25.76;50.13
61676;BME280;47574;52.090;5.244;2022-08-05T01:16:13;101548.0;;;25.77;50.11
61676;BME280;47574;52.090;5.244;2022-08-05T01:18:11;101548.0;;;25.81;50.05
61676;BME280;47574;52.090;5.244;2022-08-05T01:20:25;101543.0;;;25.92;49.72
61676;BME280;47574;52.090;5.244;2022-08-05T01:22:29;101545.0;;;25.8;49.78
61676;BME280;47574;52.090;5.244;2022-08-05T01:24:43;101549.0;;;25.55;50.14
61676;BME280;47574;52.090;5.244;2022-08-05T01:27:47;101550.0;;;25.59;49.96
61676;BME280;47574;52.090;5.244;2022-08-05T01:29:44;101545.0;;;25.78;49.39
61676;BME280;47574;52.090;5.244;2022-08-05T01:33:32;101545.0;;;25.88;49.18
61676;BME280;47574;52.090;5.244;2022-08-05T01:35:24;101551.0;;;25.89;49.01
61676;BME280;47574;52.090;5.244;2022-08-05T01:37:17;101559.0;;;25.75;49.28
61676;BME280;47574;52.090;5.244;2022-08-05T01:39:09;101565.0;;;25.73;49.38
61676;BME280;47574;52.090;5.244;2022-08-05T01:40:56;101571.0;;;25.84;49.12
61676;BME280;47574;52.090;5.244;2022-08-05T01:42:46;101573.0;;;25.78;49.27
61676;BME280;47574;52.090;5.244;2022-08-05T01:44:36;101573.0;;;25.78;49.32
61676;BME280;47574;52.090;5.244;2022-08-05T01:46:25;101580.0;;;25.71;49.37
61676;BME280;47574;52.090;5.244;2022-08-05T01:50:03;101589.0;;;25.75;49.31
61676;BME280;47574;52.090;5.244;2022-08-05T01:52:00;101586.0;;;25.68;49.46
61676;BME280;47574;52.090;5.244;2022-08-05T01:53:50;101580.0;;;25.69;49.41
61676;BME280;47574;52.090;5.244;2022-08-05T01:55:39;101577.0;;;25.8;49.22
61676;BME280;47574;52.090;5.244;2022-08-05T01:57:31;101581.0;;;25.88;48.93
61676;BME280;47574;52.090;5.244;2022-08-05T01:59:25;101580.0;;;25.82;49.08
61676;BME280;47574;52.090;5.244;2022-08-05T02:01:13;101575.0;;;25.88;48.96
61676;BME280;47574;52.090;5.244;2022-08-05T02:05:05;101566.0;;;25.84;49.0
61676;BME280;47574;52.090;5.244;2022-08-05T02:06:54;101564.0;;;25.82;48.93
61676;BME280;47574;52.090;5.244;2022-08-05T02:08:42;101557.0;;;25.66;49.21
61676;BME280;47574;52.090;5.244;2022-08-05T02:10:32;101556.0;;;25.71;49.11
61676;BME280;47574;52.090;5.244;2022-08-05T02:12:26;101559.0;;;25.58;49.33
61676;BME280;47574;52.090;5.244;2022-08-05T02:14:26;101567.0;;;25.56;49.42
61676;BME280;47574;52.090;5.244;2022-08-05T02:16:21;101564.0;;;25.52;49.51
61676;BME280;47574;52.090;5.244;2022-08-05T02:18:14;101566.0;;;25.54;49.43
61676;BME280;47574;52.090;5.244;2022-08-05T02:20:18;101571.0;;;25.68;49.07
61676;BME280;47574;52.090;5.244;2022-08-05T02:22:15;101568.0;;;25.67;49.07
61676;BME280;47574;52.090;5.244;2022-08-05T02:24:05;101567.0;;;25.74;48.92
61676;BME280;47574;52.090;5.244;2022-08-05T02:27:48;101558.0;;;25.6;49.25
61676;BME280;47574;52.090;5.244;2022-08-05T02:29:40;101564.0;;;25.76;48.93
61676;BME280;47574;52.090;5.244;2022-08-05T02:31:29;101560.0;;;25.72;48.86
61676;BME280;47574;52.090;5.244;2022-08-05T02:33:19;101560.0;;;25.77;48.73
61676;BME280;47574;52.090;5.244;2022-08-05T02:35:10;101565.0;;;25.76;48.8
61676;BME280;47574;52.090;5.244;2022-08-05T02:37:02;101562.0;;;25.6;49.28
61676;BME280;47574;52.090;5.244;2022-08-05T02:38:51;101559.0;;;25.45;49.43
61676;BME280;47574;52.090;5.244;2022-08-05T02:42:29;101560.0;;;25.52;49.26
61676;BME280;47574;52.090;5.244;2022-08-05T02:44:18;101556.0;;;25.44;49.4
61676;BME280;47574;52.090;5.244;2022-08-05T02:46:06;101556.0;;;25.41;49.53
61676;BME280;47574;52.090;5.244;2022-08-05T02:47:55;101552.0;;;25.48;49.5
61676;BME280;47574;52.090;5.244;2022-08-05T02:49:44;101545.0;;;25.38;49.74
61676;BME280;47574;52.090;5.244;2022-08-05T02:51:34;101548.0;;;25.48;49.5
61676;BME280;47574;52.090;5.244;2022-08-05T02:53:22;101545.0;;;25.47;49.46
61676;BME280;47574;52.090;5.244;2022-08-05T02:56:58;101540.0;;;25.37;49.66
61676;BME280;47574;52.090;5.244;2022-08-05T02:58:46;101534.0;;;25.36;49.76
61676;BME280;47574;52.090;5.244;2022-08-05T03:00:36;101537.0;;;25.25;49.89
61676;BME280;47574;52.090;5.244;2022-08-05T03:02:27;101541.0;;;24.96;50.38
61676;BME280;47574;52.090;5.244;2022-08-05T03:04:17;101543.0;;;25.07;50.25
61676;BME280;47574;52.090;5.244;2022-08-05T03:06:04;101542.0;;;25.24;49.83
61676;BME280;47574;52.090;5.244;2022-08-05T03:09:41;101544.0;;;25.06;50.28
61676;BME280;47574;52.090;5.244;2022-08-05T03:11:28;101553.0;;;25.2;49.93
61676;BME280;47574;52.090;5.244;2022-08-05T03:13:15;101562.0;;;25.25;49.8
61676;BME280;47574;52.090;5.244;2022-08-05T03:15:06;101563.0;;;24.99;50.41
61676;BME280;47574;52.090;5.244;2022-08-05T03:16:54;101566.0;;;24.88;50.6
61676;BME280;47574;52.090;5.244;2022-08-05T03:18:40;101564.0;;;25.01;50.39
61676;BME280;47574;52.090;5.244;2022-08-05T03:22:13;101565.0;;;25.02;50.46
61676;BME280;47574;52.090;5.244;2022-08-05T03:24:01;101562.0;;;25.15;50.26
61676;BME280;47574;52.090;5.244;2022-08-05T03:25:48;101557.0;;;25.01;50.53
61676;BME280;47574;52.090;5.244;2022-08-05T03:27:36;101552.0;;;24.91;50.74
61676;BME280;47574;52.090;5.244;2022-08-05T03:29:23;101548.0;;;25.22;50.12
61676;BME280;47574;52.090;5.244;2022-08-05T03:31:10;101549.0;;;25.25;50.03
61676;BME280;47574;52.090;5.244;2022-08-05T03:34:46;101550.0;;;25.17;50.21
61676;BME280;47574;52.090;5.244;2022-08-05T03:36:33;101549.0;;;25.04;50.53
61676;BME280;47574;52.090;5.244;2022-08-05T03:38:22;101551.0;;;25.19;50.13
61676;BME280;47574;52.090;5.244;2022-08-05T03:40:09;101551.0;;;25.16;50.29
61676;BME280;47574;52.090;5.244;2022-08-05T03:41:56;101559.0;;;25.08;50.49
61676;BME280;47574;52.090;5.244;2022-08-05T03:43:43;101563.0;;;25.18;50.24
61676;BME280;47574;52.090;5.244;2022-08-05T03:47:16;101563.0;;;25.05;50.59
61676;BME280;47574;52.090;5.244;2022-08-05T03:49:02;101563.0;;;24.93;50.87
61676;BME280;47574;52.090;5.244;2022-08-05T03:50:52;101567.0;;;25.01;50.79
61676;BME280;47574;52.090;5.244;2022-08-05T03:52:51;101575.0;;;25.28;50.18
61676;BME280;47574;52.090;5.244;2022-08-05T03:54:51;101580.0;;;24.81;51.23
61676;BME280;47574;52.090;5.244;2022-08-05T03:56:40;101573.0;;;25.06;50.75
61676;BME280;47574;52.090;5.244;2022-08-05T03:58:31;101576.0;;;24.8;51.29
61676;BME280;47574;52.090;5.244;2022-08-05T04:00:26;101570.0;;;25.18;50.52
61676;BME280;47574;52.090;5.244;2022-08-05T04:04:04;101578.0;;;24.84;51.27
61676;BME280;47574;52.090;5.244;2022-08-05T04:05:52;101569.0;;;24.95;51.05
61676;BME280;47574;52.090;5.244;2022-08-05T04:07:41;101563.0;;;24.98;51.06
61676;BME280;47574;52.090;5.244;2022-08-05T04:09:28;101574.0;;;24.8;51.48
61676;BME280;47574;52.090;5.244;2022-08-05T04:11:15;101576.0;;;24.66;51.87
61676;BME280;47574;52.090;5.244;2022-08-05T04:13:04;101580.0;;;24.78;51.59
61676;BME280;47574;52.090;5.244;2022-08-05T04:16:39;101574.0;;;25.03;51.1
61676;BME280;47574;52.090;5.244;2022-08-05T04:18:26;101581.0;;;24.71;51.71
61676;BME280;47574;52.090;5.244;2022-08-05T04:20:18;101581.0;;;24.71;51.82
61676;BME280;47574;52.090;5.244;2022-08-05T04:22:05;101580.0;;;24.87;51.55
61676;BME280;47574;52.090;5.244;2022-08-05T04:23:51;101578.0;;;24.54;52.35
61676;BME280;47574;52.090;5.244;2022-08-05T04:25:37;101575.0;;;24.55;52.36
61676;BME280;47574;52.090;5.244;2022-08-05T04:29:10;101582.0;;;24.52;52.36
61676;BME280;47574;52.090;5.244;2022-08-05T04:30:57;101584.0;;;24.65;52.05
61676;BME280;47574;52.090;5.244;2022-08-05T04:32:44;101584.0;;;24.43;52.36
61676;BME280;47574;52.090;5.244;2022-08-05T04:34:31;101588.0;;;24.58;51.89
61676;BME280;47574;52.090;5.244;2022-08-05T04:36:17;101586.0;;;24.49;52.06
61676;BME280;47574;52.090;5.244;2022-08-05T04:38:04;101585.0;;;24.56;51.78
61676;BME280;47574;52.090;5.244;2022-08-05T04:41:36;101581.0;;;24.72;51.28
61676;BME280;47574;52.090;5.244;2022-08-05T04:43:22;101580.0;;;24.5;51.75
61676;BME280;47574;52.090;5.244;2022-08-05T04:45:09;101580.0;;;24.46;51.6
61676;BME280;47574;52.090;5.244;2022-08-05T04:46:56;101576.0;;;24.66;51.17
61676;BME280;47574;52.090;5.244;2022-08-05T04:48:43;101578.0;;;24.14;52.31
61676;BME280;47574;52.090;5.244;2022-08-05T04:50:29;101580.0;;;24.36;51.89
61676;BME280;47574;52.090;5.244;2022-08-05T04:54:02;101581.0;;;24.49;51.46
61676;BME280;47574;52.090;5.244;2022-08-05T04:55:50;101585.0;;;24.31;51.77
61676;BME280;47574;52.090;5.244;2022-08-05T04:57:36;101583.0;;;24.34;51.71
61676;BME280;47574;52.090;5.244;2022-08-05T04:59:22;101585.0;;;24.29;51.8
61676;BME280;47574;52.090;5.244;2022-08-05T05:01:08;101583.0;;;24.28;51.8
61676;BME280;47574;52.090;5.244;2022-08-05T05:04:41;101581.0;;;24.32;51.63
61676;BME280;47574;52.090;5.244;2022-08-05T05:06:27;101587.0;;;24.13;51.97
61676;BME280;47574;52.090;5.244;2022-08-05T05:08:15;101583.0;;;23.99;52.41
61676;BME280;47574;52.090;5.244;2022-08-05T05:10:05;101583.0;;;24.16;51.89
61676;BME280;47574;52.090;5.244;2022-08-05T05:11:51;101582.0;;;24.08;51.83
61676;BME280;47574;52.090;5.244;2022-08-05T05:13:37;101585.0;;;24.04;52.04
61676;BME280;47574;52.090;5.244;2022-08-05T05:17:10;101589.0;;;24.12;51.89
61676;BME280;47574;52.090;5.244;2022-08-05T05:18:56;101587.0;;;24.19;51.65
61676;BME280;47574;52.090;5.244;2022-08-05T05:20:44;101584.0;;;24.16;51.58
61676;BME280;47574;52.090;5.244;2022-08-05T05:22:32;101587.0;;;24.41;50.99
61676;BME280;47574;52.090;5.244;2022-08-05T05:24:20;101590.0;;;24.35;51.17
61676;BME280;47574;52.090;5.244;2022-08-05T05:26:07;101589.0;;;24.11;51.53
61676;BME280;47574;52.090;5.244;2022-08-05T05:29:41;101592.0;;;24.08;51.54
61676;BME280;47574;52.090;5.244;2022-08-05T05:31:28;101591.0;;;23.97;51.8
61676;BME280;47574;52.090;5.244;2022-08-05T05:33:15;101592.0;;;24.01;51.59
61676;BME280;47574;52.090;5.244;2022-08-05T05:35:02;101592.0;;;23.9;51.82
61676;BME280;47574;52.090;5.244;2022-08-05T05:36:48;101594.0;;;23.98;51.69
61676;BME280;47574;52.090;5.244;2022-08-05T05:40:22;101595.0;;;24.21;51.12
61676;BME280;47574;52.090;5.244;2022-08-05T05:42:10;101592.0;;;24.12;51.13
61676;BME280;47574;52.090;5.244;2022-08-05T05:43:57;101592.0;;;24.1;51.29
61676;BME280;47574;52.090;5.244;2022-08-05T05:45:44;101594.0;;;24.09;51.21
61676;BME280;47574;52.090;5.244;2022-08-05T05:47:30;101596.0;;;24.25;50.87
61676;BME280;47574;52.090;5.244;2022-08-05T05:49:16;101599.0;;;24.24;50.66
61676;BME280;47574;52.090;5.244;2022-08-05T05:52:49;101595.0;;;23.81;51.64
61676;BME280;47574;52.090;5.244;2022-08-05T05:54:35;101597.0;;;24.07;51.1
61676;BME280;47574;52.090;5.244;2022-08-05T05:56:24;101599.0;;;24.09;51.05
61676;BME280;47574;52.090;5.244;2022-08-05T05:58:11;101602.0;;;23.9;51.51
61676;BME280;47574;52.090;5.244;2022-08-05T05:59:57;101605.0;;;24.28;50.78
61676;BME280;47574;52.090;5.244;2022-08-05T06:01:43;101601.0;;;24.36;50.17
61676;BME280;47574;52.090;5.244;2022-08-05T06:05:16;101603.0;;;24.31;50.36
61676;BME280;47574;52.090;5.244;2022-08-05T06:07:03;101602.0;;;24.56;49.32
61676;BME280;47574;52.090;5.244;2022-08-05T06:08:48;101605.0;;;24.37;49.15
61676;BME280;47574;52.090;5.244;2022-08-05T06:10:36;101605.0;;;24.46;49.04
61676;BME280;47574;52.090;5.244;2022-08-05T06:12:22;101606.0;;;24.52;48.95
61676;BME280;47574;52.090;5.244;2022-08-05T06:15:54;101608.0;;;24.25;49.16
61676;BME280;47574;52.090;5.244;2022-08-05T06:17:41;101611.0;;;24.39;48.86
61676;BME280;47574;52.090;5.244;2022-08-05T06:19:28;101616.0;;;24.53;48.67
61676;BME280;47574;52.090;5.244;2022-08-05T06:21:14;101620.0;;;24.69;48.44
61676;BME280;47574;52.090;5.244;2022-08-05T06:23:00;101625.0;;;24.52;48.52
61676;BME280;47574;52.090;5.244;2022-08-05T06:24:46;101625.0;;;24.32;49.0
61676;BME280;47574;52.090;5.244;2022-08-05T06:28:20;101627.0;;;24.41;48.83
61676;BME280;47574;52.090;5.244;2022-08-05T06:30:07;101623.0;;;24.68;48.37
61676;BME280;47574;52.090;5.244;2022-08-05T06:31:55;101627.0;;;24.49;48.59
61676;BME280;47574;52.090;5.244;2022-08-05T06:33:41;101623.0;;;24.74;48.12
61676;BME280;47574;52.090;5.244;2022-08-05T06:35:27;101624.0;;;24.78;47.82
61676;BME280;47574;52.090;5.244;2022-08-05T06:37:14;101622.0;;;24.96;47.23
61676;BME280;47574;52.090;5.244;2022-08-05T06:40:47;101627.0;;;24.91;47.43
61676;BME280;47574;52.090;5.244;2022-08-05T06:42:34;101628.0;;;24.95;47.23
61676;BME280;47574;52.090;5.244;2022-08-05T06:44:21;101633.0;;;24.67;47.54
61676;BME280;47574;52.090;5.244;2022-08-05T06:46:07;101634.0;;;24.64;47.51
61676;BME280;47574;52.090;5.244;2022-08-05T06:47:53;101638.0;;;24.75;47.4
61676;BME280;47574;52.090;5.244;2022-08-05T06:51:25;101641.0;;;24.8;47.01
61676;BME280;47574;52.090;5.244;2022-08-05T06:53:14;101649.0;;;24.44;47.66
61676;BME280;47574;52.090;5.244;2022-08-05T06:54:59;101658.0;;;24.71;47.35
61676;BME280;47574;52.090;5.244;2022-08-05T06:56:46;101658.0;;;24.62;47.13
61676;BME280;47574;52.090;5.244;2022-08-05T06:58:32;101657.0;;;24.75;46.74
61676;BME280;47574;52.090;5.244;2022-08-05T07:00:20;101657.0;;;24.95;46.55
61676;BME280;47574;52.090;5.244;2022-08-05T07:03:54;101660.0;;;24.96;46.36
61676;BME280;47574;52.090;5.244;2022-08-05T07:05:40;101659.0;;;25.06;45.82
61676;BME280;47574;52.090;5.244;2022-08-05T07:07:26;101668.0;;;24.84;45.81
61676;BME280;47574;52.090;5.244;2022-08-05T07:09:12;101660.0;;;25.06;45.28
61676;BME280;47574;52.090;5.244;2022-08-05T07:10:58;101660.0;;;25.07;44.71
61676;BME280;47574;52.090;5.244;2022-08-05T07:16:59;101663.0;;;25.3;44.49
61676;BME280;47574;52.090;5.244;2022-08-05T07:18:45;101660.0;;;25.32;44.3
61676;BME280;47574;52.090;5.244;2022-08-05T07:20:31;101661.0;;;25.29;41.58
61676;BME280;47574;52.090;5.244;2022-08-05T07:22:21;101665.0;;;25.08;41.63
61676;BME280;47574;52.090;5.244;2022-08-05T07:24:08;101665.0;;;25.23;40.89
61676;BME280;47574;52.090;5.244;2022-08-05T07:25:55;101670.0;;;25.16;39.89
61676;BME280;47574;52.090;5.244;2022-08-05T07:27:41;101674.0;;;25.41;39.61
61676;BME280;47574;52.090;5.244;2022-08-05T07:31:13;101675.0;;;25.14;40.03
61676;BME280;47574;52.090;5.244;2022-08-05T07:33:00;101680.0;;;25.29;39.85
61676;BME280;47574;52.090;5.244;2022-08-05T07:34:47;101686.0;;;25.36;39.82
61676;BME280;47574;52.090;5.244;2022-08-05T07:36:33;101689.0;;;25.17;40.58
61676;BME280;47574;52.090;5.244;2022-08-05T07:38:21;101681.0;;;25.59;39.85
61676;BME280;47574;52.090;5.244;2022-08-05T07:40:08;101690.0;;;25.47;40.15
61676;BME280;47574;52.090;5.244;2022-08-05T07:43:41;101686.0;;;25.74;39.49
61676;BME280;47574;52.090;5.244;2022-08-05T07:45:27;101687.0;;;25.59;39.6
61676;BME280;47574;52.090;5.244;2022-08-05T07:47:14;101696.0;;;25.28;40.11
61676;BME280;47574;52.090;5.244;2022-08-05T07:49:02;101697.0;;;25.57;39.96
61676;BME280;47574;52.090;5.244;2022-08-05T07:50:48;101698.0;;;25.42;38.96
61676;BME280;47574;52.090;5.244;2022-08-05T07:52:37;101691.0;;;25.63;37.57
61676;BME280;47574;52.090;5.244;2022-08-05T07:56:11;101698.0;;;25.87;36.82
61676;BME280;47574;52.090;5.244;2022-08-05T07:57:57;101705.0;;;25.94;37.04
61676;BME280;47574;52.090;5.244;2022-08-05T07:59:43;101703.0;;;26.05;36.64
61676;BME280;47574;52.090;5.244;2022-08-05T08:01:29;101708.0;;;26.04;35.78
61676;BME280;47574;52.090;5.244;2022-08-05T08:03:16;101713.0;;;25.75;35.46
61676;BME280;47574;52.090;5.244;2022-08-05T08:05:03;101721.0;;;25.57;35.86
61676;BME280;47574;52.090;5.244;2022-08-05T08:08:36;101717.0;;;25.81;35.56
61676;BME280;47574;52.090;5.244;2022-08-05T08:10:22;101716.0;;;25.89;35.67
61676;BME280;47574;52.090;5.244;2022-08-05T08:12:09;101718.0;;;26.05;35.74
61676;BME280;47574;52.090;5.244;2022-08-05T08:13:56;101722.0;;;26.01;35.81
61676;BME280;47574;52.090;5.244;2022-08-05T08:15:43;101723.0;;;26.12;35.78
61676;BME280;47574;52.090;5.244;2022-08-05T08:19:16;101725.0;;;26.48;35.58
61676;BME280;47574;52.090;5.244;2022-08-05T08:21:03;101723.0;;;26.55;35.62
61676;BME280;47574;52.090;5.244;2022-08-05T08:22:51;101721.0;;;26.56;34.89
61676;BME280;47574;52.090;5.244;2022-08-05T08:24:38;101720.0;;;26.56;34.67
61676;BME280;47574;52.090;5.244;2022-08-05T08:26:25;101725.0;;;26.58;34.5
61676;BME280;47574;52.090;5.244;2022-08-05T08:28:12;101727.0;;;26.74;35.28
61676;BME280;47574;52.090;5.244;2022-08-05T08:31:44;101730.0;;;26.75;35.58
61676;BME280;47574;52.090;5.244;2022-08-05T08:33:31;101733.0;;;26.8;35.03
61676;BME280;47574;52.090;5.244;2022-08-05T08:35:17;101737.0;;;26.98;34.85
61676;BME280;47574;52.090;5.244;2022-08-05T08:37:04;101737.0;;;26.6;34.28
61676;BME280;47574;52.090;5.244;2022-08-05T08:38:54;101738.0;;;26.53;34.07
61676;BME280;47574;52.090;5.244;2022-08-05T08:40:41;101740.0;;;26.57;34.06
61676;BME280;47574;52.090;5.244;2022-08-05T08:44:19;101748.0;;;26.63;34.21
61676;BME280;47574;52.090;5.244;2022-08-05T08:46:06;101745.0;;;26.55;34.18
61676;BME280;47574;52.090;5.244;2022-08-05T08:47:53;101744.0;;;26.73;33.55
61676;BME280;47574;52.090;5.244;2022-08-05T08:49:44;101752.0;;;26.57;34.29
61676;BME280;47574;52.090;5.244;2022-08-05T08:51:34;101751.0;;;26.53;33.76
61676;BME280;47574;52.090;5.244;2022-08-05T08:53:24;101742.0;;;26.58;33.92
61676;BME280;47574;52.090;5.244;2022-08-05T08:56:59;101745.0;;;26.64;34.05
61676;BME280;47574;52.090;5.244;2022-08-05T08:58:47;101749.0;;;26.55;34.6
61676;BME280;47574;52.090;5.244;2022-08-05T09:00:33;101760.0;;;26.35;33.76
61676;BME280;47574;52.090;5.244;2022-08-05T09:02:22;101756.0;;;26.65;31.99
61676;BME280;47574;52.090;5.244;2022-08-05T09:04:09;101759.0;;;26.53;32.62
61676;BME280;47574;52.090;5.244;2022-08-05T09:05:56;101764.0;;;26.43;32.65
61676;BME280;47574;52.090;5.244;2022-08-05T09:09:29;101764.0;;;26.4;32.17
61676;BME280;47574;52.090;5.244;2022-08-05T09:11:15;101768.0;;;26.44;32.14
61676;BME280;47574;52.090;5.244;2022-08-05T09:13:01;101770.0;;;26.47;32.39
61676;BME280;47574;52.090;5.244;2022-08-05T09:14:47;101778.0;;;26.54;32.01
61676;BME280;47574;52.090;5.244;2022-08-05T09:16:34;101782.0;;;26.39;32.46
61676;BME280;47574;52.090;5.244;2022-08-05T09:18:20;101787.0;;;25.96;33.78
61676;BME280;47574;52.090;5.244;2022-08-05T09:21:56;101782.0;;;26.13;32.21
61676;BME280;47574;52.090;5.244;2022-08-05T09:23:44;101778.0;;;26.21;31.57
61676;BME280;47574;52.090;5.244;2022-08-05T09:25:31;101784.0;;;26.47;32.11
61676;BME280;47574;52.090;5.244;2022-08-05T09:27:30;101788.0;;;26.69;32.1
61676;BME280;47574;52.090;5.244;2022-08-05T09:29:18;101788.0;;;26.61;32.67
61676;BME280;47574;52.090;5.244;2022-08-05T09:31:06;101785.0;;;26.72;32.04
61676;BME280;47574;52.090;5.244;2022-08-05T09:34:48;101801.0;;;26.77;32.17
61676;BME280;47574;52.090;5.244;2022-08-05T09:36:40;101801.0;;;26.66;32.69
61676;BME280;47574;52.090;5.244;2022-08-05T09:38:29;101798.0;;;26.92;32.35
61676;BME280;47574;52.090;5.244;2022-08-05T09:40:33;101805.0;;;26.79;31.54
61676;BME280;47574;52.090;5.244;2022-08-05T09:42:21;101806.0;;;26.72;31.87
61676;BME280;47574;52.090;5.244;2022-08-05T09:44:08;101814.0;;;26.66;31.24
61676;BME280;47574;52.090;5.244;2022-08-05T09:45:54;101818.0;;;26.5;31.33
61676;BME280;47574;52.090;5.244;2022-08-05T09:47:41;101827.0;;;26.6;31.82
61676;BME280;47574;52.090;5.244;2022-08-05T09:51:14;101822.0;;;26.52;32.56
61676;BME280;47574;52.090;5.244;2022-08-05T09:53:00;101824.0;;;26.54;33.67
61676;BME280;47574;52.090;5.244;2022-08-05T09:54:56;101826.0;;;26.4;33.3
61676;BME280;47574;52.090;5.244;2022-08-05T09:56:45;101839.0;;;26.03;34.07
61676;BME280;47574;52.090;5.244;2022-08-05T09:58:31;101843.0;;;26.13;34.29
61676;BME280;47574;52.090;5.244;2022-08-05T10:00:20;101840.0;;;26.1;33.83
61676;BME280;47574;52.090;5.244;2022-08-05T10:03:58;101830.0;;;26.46;33.78
61676;BME280;47574;52.090;5.244;2022-08-05T10:05:44;101830.0;;;26.47;34.22
61676;BME280;47574;52.090;5.244;2022-08-05T10:07:49;101830.0;;;26.51;34.99
61676;BME280;47574;52.090;5.244;2022-08-05T10:09:54;101838.0;;;26.3;35.65
61676;BME280;47574;52.090;5.244;2022-08-05T10:11:42;101841.0;;;26.0;36.04
61676;BME280;47574;52.090;5.244;2022-08-05T10:13:31;101842.0;;;26.4;35.29
61676;BME280;47574;52.090;5.244;2022-08-05T10:15:22;101841.0;;;26.25;35.14
61676;BME280;47574;52.090;5.244;2022-08-05T10:17:12;101842.0;;;26.27;34.9
61676;BME280;47574;52.090;5.244;2022-08-05T10:19:00;101842.0;;;26.6;34.47
61676;BME280;47574;52.090;5.244;2022-08-05T10:22:38;101839.0;;;26.64;34.31
61676;BME280;47574;52.090;5.244;2022-08-05T10:24:25;101849.0;;;26.64;34.28
61676;BME280;47574;52.090;5.244;2022-08-05T10:26:13;101855.0;;;26.46;33.43
61676;BME280;47574;52.090;5.244;2022-08-05T10:28:00;101853.0;;;26.09;33.67
61676;BME280;47574;52.090;5.244;2022-08-05T10:29:47;101856.0;;;26.3;33.24
61676;BME280;47574;52.090;5.244;2022-08-05T10:31:35;101862.0;;;26.37;33.37
61676;BME280;47574;52.090;5.244;2022-08-05T10:35:12;101859.0;;;26.46;32.51
61676;BME280;47574;52.090;5.244;2022-08-05T10:37:01;101861.0;;;26.51;31.01
61676;BME280;47574;52.090;5.244;2022-08-05T10:38:50;101863.0;;;26.2;31.78
61676;BME280;47574;52.090;5.244;2022-08-05T10:40:51;101867.0;;;26.55;30.14
61676;BME280;47574;52.090;5.244;2022-08-05T10:44:35;101867.0;;;26.74;26.76
61676;BME280;47574;52.090;5.244;2022-08-05T10:46:23;101870.0;;;26.53;26.34
61676;BME280;47574;52.090;5.244;2022-08-05T10:50:28;101872.0;;;25.97;26.14
61676;BME280;47574;52.090;5.244;2022-08-05T10:54:44;101880.0;;;26.19;26.12
61676;BME280;47574;52.090;5.244;2022-08-05T10:56:44;101882.0;;;26.24;26.05
61676;BME280;47574;52.090;5.244;2022-08-05T10:58:32;101888.0;;;26.28;25.7
61676;BME280;47574;52.090;5.244;2022-08-05T11:00:20;101887.0;;;26.58;26.35
61676;BME280;47574;52.090;5.244;2022-08-05T11:02:09;101882.0;;;26.91;25.98
61676;BME280;47574;52.090;5.244;2022-08-05T11:04:03;101887.0;;;26.89;26.03
61676;BME280;47574;52.090;5.244;2022-08-05T11:06:08;101886.0;;;26.83;26.36
61676;BME280;47574;52.090;5.244;2022-08-05T11:07:58;101890.0;;;26.81;26.52
61676;BME280;47574;52.090;5.244;2022-08-05T11:09:46;101895.0;;;26.74;26.84
61676;BME280;47574;52.090;5.244;2022-08-05T11:11:35;101896.0;;;27.02;26.77
61676;BME280;47574;52.090;5.244;2022-08-05T11:13:38;101900.0;;;27.12;27.08